Nearby METAR Reports

 

KSJC - San Jose, California, USA
Distance from station: NO 14km
Uppdaterad: 2021-03-03 09:53
Klart
Klart
 Vind från calm
Vind: Vindstilla
Temperatur: 11°C
Daggpunkt: 6°C
Luftfuktighet: 72%
Barometer: 1008.8 hPa
Clouds: Klart
Visibility: 16 km
2021/03/03 08:53 KSJC 030853Z AUTO 00000KT 10SM CLR 11/06 A2979 RMK AO2 SLP088 T01110061 56014
KNUQ - Moffett Nas/Mtn, California, USA
Distance from station: N 14km
Uppdaterad: 2021-03-03 10:15
Klart
Klart
 Vind från calm
Vind: Vindstilla
Temperatur: 11°C
Daggpunkt: 6°C
Luftfuktighet: 72%
Barometer: 1008.8 hPa
Clouds: Klart
Visibility: 16 km
2021/03/03 09:15 KNUQ 030915Z AUTO 00000KT 10SM CLR 11/06 A2979 RMK AO2
 
KPAO - Palo Alto, California, USA
Distance from station: NNV 23km
Uppdaterad: 2021-03-03 05:47
NOT Current
Genommulet
Genommulet
 Vind från NV
Vind: NV 7 km/h
Temperatur: 11°C
Daggpunkt: 7°C
Luftfuktighet: 77%
Barometer: 1010.5 hPa
Clouds: Genommulet
Visibility: 16 km
Cloud details: Genommulet 3048 m
2021/03/03 04:47 KPAO 030447Z 31004KT 10SM OVC100 11/07 A2984 RMK LAST
KRHV - San Jose/Reid, California, USA
Distance from station: ONO 19km
Uppdaterad: 2021-03-03 06:55
NOT Current
Övervägande molnigt
Övervägande molnigt
 Vind från calm
Vind: Vindstilla
Temperatur: 12°C
Daggpunkt: 6°C
Luftfuktighet: 67%
Barometer: 1010.5 hPa
Clouds: Övervägande molnigt
Visibility: 16 km
Cloud details: Övervägande molnigt 3658 m
2021/03/03 05:55 KRHV 030555Z 00000KT 10SM BKN120 12/06 A2984 RMK LAST
 
KOAK - Oakland, California, USA
Distance from station: NNV 50km
Uppdaterad: 2021-03-03 09:53
Genommulet
Genommulet
 Vind från calm
Vind: Vindstilla
Temperatur: 12°C
Daggpunkt: 6°C
Luftfuktighet: 67%
Barometer: 1008.8 hPa
Clouds: Genommulet
Visibility: 16 km
Cloud details: Delvis molnigt 6096 m
Genommulet 7620 m
2021/03/03 08:53 KOAK 030853Z 00000KT 10SM SCT200 OVC250 12/06 A2979 RMK AO2 SLP089 T01220061 56019 $
KSQL - San Carlos Airpo, California, USA
Distance from station: NV 34km
Uppdaterad: 2021-03-03 10:15
Few Clouds
Few Clouds
 
Temperatur: 10°C
Daggpunkt: 5°C
Luftfuktighet: 71%
Barometer: 1009.1 hPa
Clouds: Few Clouds
Visibility: 16 km
Cloud details: Few Clouds 91 m
2021/03/03 09:15 KSQL 030915Z AUTO 10SM FEW003 10/05 A2980 RMK AO2
 
KSFO - San Francisco, California, USA
Distance from station: NV 49km
Uppdaterad: 2021-03-03 09:56
Övervägande molnigt
Övervägande molnigt
 Vind från SSV
Vind: SSV 6 km/h
Temperatur: 11°C
Daggpunkt: 4°C
Luftfuktighet: 62%
Barometer: 1008.8 hPa
Clouds: Övervägande molnigt
Visibility: 16 km
Cloud details: Few Clouds 5486 m
Övervägande molnigt 6096 m
2021/03/03 08:56 KSFO 030856Z 21003KT 10SM FEW180 BKN200 11/04 A2979 RMK AO2 SLP087 T01110039 56016
KE16 - San Martin, California, USA
Distance from station: OSO 43km
Uppdaterad: 2021-03-03 10:15
Klart
Klart
 Vind från calm
Vind: Vindstilla
Temperatur: 8°C
Daggpunkt: 4°C
Luftfuktighet: 76%
Barometer: 1009.5 hPa
Clouds: Klart
Visibility: 16 km
2021/03/03 09:15 KE16 030915Z AUTO 00000KT 10SM CLR 08/04 A2981 RMK AO2 PWINO PNO
 
KWVI - Watsonville, California, USA
Distance from station: SSO 44km
Uppdaterad: 2021-03-03 09:53
Klart
Klart
 Vind från calm
Vind: Vindstilla
Temperatur: 8°C
Daggpunkt: 4°C
Luftfuktighet: 76%
Barometer: 1009.1 hPa
Clouds: Klart
Visibility: 16 km
2021/03/03 08:53 KWVI 030853Z AUTO 00000KT 10SM CLR 08/04 A2980 RMK AO2 SLP089 T00780044 58010
KHAF - Half Moon Bay, California, USA
Distance from station: VNV 50km
Uppdaterad: 2021-03-03 10:15

 Vind från calm
Vind: Vindstilla
Temperatur: 6°C
Daggpunkt: 3°C
Luftfuktighet: 81%
Barometer: 1009.1 hPa
Visibility: 13 km
2021/03/03 09:15 KHAF 030915Z AUTO 00000KT 8SM 06/03 A2980 RMK AO2
 
KHWD - Hayward, California, USA
Distance from station: N 44km
Uppdaterad: 2021-03-03 09:54
Klart
Klart
 Vind från O
Vind: O 6 km/h
Temperatur: 9°C
Daggpunkt: 4°C
Luftfuktighet: 71%
Barometer: 1008.8 hPa
Clouds: Klart
Visibility: 16 km
2021/03/03 08:54 KHWD 030854Z 10003KT 10SM CLR 09/04 A2979 RMK AO2 SLP096 T00940039 56016
KLVK - Livermore, California, USA
Distance from station: NNO 51km
Uppdaterad: 2021-03-03 09:53
Klart
Klart
 Vind från calm
Vind: Vindstilla
Temperatur: 7°C
Daggpunkt: 1°C
Luftfuktighet: 66%
Barometer: 1008.8 hPa
Clouds: Klart
Visibility: 16 km
2021/03/03 08:53 KLVK 030853Z AUTO 00000KT 10SM CLR 07/01 A2979 RMK AO2 SLP084 T00720006 56013